createdAt,value
2019-01-29T00:01:27.734Z,87.28
2019-01-29T00:04:00.935Z,87.29
2019-01-29T00:06:34.834Z,87.27
2019-01-29T00:09:10.834Z,87.19
2019-01-29T00:11:45.729Z,87.14
2019-01-29T00:14:30.282Z,87.01
2019-01-29T00:17:04.456Z,86.98
2019-01-29T00:30:12.948Z,86.94
2019-01-29T00:33:04.478Z,86.94
2019-01-29T00:35:38.377Z,87.00
2019-01-29T00:38:33.226Z,87.15
2019-01-29T00:41:24.506Z,87.21
2019-01-29T00:43:58.175Z,87.27
2019-01-29T00:57:06.034Z,87.67
2019-01-29T00:59:38.402Z,87.69
2019-01-29T01:02:12.522Z,87.68
2019-01-29T01:05:05.777Z,87.60
2019-01-29T01:07:40.692Z,87.56
2019-01-29T01:10:16.296Z,87.65
2019-01-29T01:12:49.854Z,87.76
2019-01-29T01:15:23.577Z,87.87
2019-01-29T01:17:57.963Z,87.95
2019-01-29T01:20:31.478Z,88.07
2019-01-29T01:23:33.877Z,88.24
2019-01-29T01:26:24.367Z,88.38
2019-01-29T01:29:26.790Z,88.52
2019-01-29T02:00:59.011Z,89.47
2019-01-29T02:03:32.888Z,89.49
2019-01-29T02:06:07.085Z,89.53
2019-01-29T02:08:52.613Z,89.54
2019-01-29T02:11:55.413Z,89.53
2019-01-29T02:14:29.767Z,89.57
2019-01-29T02:17:03.685Z,89.57
2019-01-29T02:19:37.927Z,89.57
2019-01-29T02:22:31.740Z,89.56
2019-01-29T02:25:06.996Z,89.58
2019-01-29T02:27:40.890Z,89.60
2019-01-29T02:30:21.969Z,89.53
2019-01-29T02:33:13.949Z,89.55
2019-01-29T02:35:48.205Z,89.57
2019-01-29T02:38:33.411Z,89.55
2019-01-29T02:41:06.165Z,89.55
2019-01-29T02:43:39.922Z,89.48
2019-01-29T02:46:14.105Z,89.43
2019-01-29T02:48:47.727Z,89.33
2019-01-29T02:51:21.230Z,89.18
2019-01-29T02:53:56.404Z,89.14
2019-01-29T02:56:29.993Z,89.08
2019-01-29T02:59:03.490Z,89.06
2019-01-29T03:01:37.341Z,88.87
2019-01-29T03:04:11.265Z,88.72
2019-01-29T03:07:00.934Z,88.58
2019-01-29T03:09:52.775Z,88.49
2019-01-29T03:12:47.080Z,88.37
2019-01-29T03:15:38.849Z,88.05
2019-01-29T03:18:12.900Z,87.93
2019-01-29T03:21:04.344Z,87.91
2019-01-29T03:23:38.263Z,87.75
2019-01-29T03:26:29.588Z,87.72
2019-01-29T03:29:14.770Z,87.65
2019-01-29T03:31:48.333Z,87.57
2019-01-29T03:34:20.632Z,87.50
2019-01-29T03:36:54.500Z,87.57
2019-01-29T03:39:28.658Z,87.62
2019-01-29T03:42:15.383Z,87.73
2019-01-29T03:44:48.860Z,87.84
2019-01-29T03:47:23.256Z,87.93
2019-01-29T03:50:16.272Z,88.16
2019-01-29T03:53:07.040Z,88.26
2019-01-29T03:55:40.492Z,88.38
2019-01-29T03:58:15.801Z,88.41
2019-01-29T04:00:50.189Z,88.43
2019-01-29T04:03:23.890Z,88.50
2019-01-29T04:05:57.378Z,88.49
2019-01-29T04:08:31.218Z,88.48
2019-01-29T04:11:05.089Z,88.54
2019-01-29T04:13:38.434Z,88.60
2019-01-29T04:16:12.307Z,88.66
2019-01-29T04:18:49.980Z,88.75
2019-01-29T04:21:33.867Z,88.87
2019-01-29T04:24:07.276Z,88.99
2019-01-29T04:26:41.164Z,89.13
2019-01-29T04:29:14.581Z,89.25
2019-01-29T04:31:50.808Z,89.32
2019-01-29T04:34:23.393Z,89.36
2019-01-29T04:36:57.160Z,89.42
2019-01-29T04:39:31.604Z,89.44
2019-01-29T04:42:26.608Z,89.55
2019-01-29T04:45:18.174Z,89.63
2019-01-29T04:47:52.236Z,89.73
2019-01-29T04:50:43.606Z,89.80
2019-01-29T04:53:18.014Z,89.83
2019-01-29T04:55:50.903Z,89.86
2019-01-29T04:58:25.045Z,89.89
2019-01-29T05:01:15.696Z,89.86
2019-01-29T05:03:50.182Z,89.82
2019-01-29T05:06:24.616Z,89.72
2019-01-29T05:08:58.803Z,89.65
2019-01-29T05:11:50.044Z,89.41
2019-01-29T05:14:41.804Z,89.23
2019-01-29T05:17:15.914Z,89.13
2019-01-29T05:19:49.667Z,89.06
2019-01-29T05:22:24.116Z,89.04
2019-01-29T05:24:57.922Z,89.05
2019-01-29T05:27:32.039Z,89.10
2019-01-29T05:30:05.908Z,89.25
2019-01-29T05:46:07.986Z,89.88
2019-01-29T05:48:53.591Z,89.95
2019-01-29T05:51:43.793Z,90.02
2019-01-29T05:54:28.752Z,90.12
2019-01-29T05:57:02.997Z,90.21
2019-01-29T05:59:47.978Z,90.19
2019-01-29T06:02:34.086Z,90.27
2019-01-29T06:05:25.756Z,90.27
2019-01-29T06:08:00.070Z,90.34
2019-01-29T06:10:34.397Z,90.39
2019-01-29T06:13:08.082Z,90.43
2019-01-29T06:15:41.856Z,90.44
2019-01-29T06:18:15.571Z,90.38
2019-01-29T06:20:49.365Z,90.38
2019-01-29T06:23:23.506Z,90.39
2019-01-29T06:26:08.373Z,90.37
2019-01-29T06:28:41.814Z,90.34
2019-01-29T06:31:22.084Z,90.36
2019-01-29T06:33:55.572Z,90.38
2019-01-29T06:36:29.910Z,90.37
2019-01-29T06:39:15.083Z,90.43
2019-01-29T06:41:49.136Z,90.41
2019-01-29T06:44:23.488Z,90.41
2019-01-29T06:47:20.321Z,90.45
2019-01-29T06:49:54.032Z,90.51
2019-01-29T06:52:28.122Z,90.49
2019-01-29T06:55:02.587Z,90.52
2019-01-29T06:57:36.648Z,90.48
2019-01-29T07:00:13.134Z,90.45
2019-01-29T07:02:47.266Z,90.45
2019-01-29T07:05:21.046Z,90.46
2019-01-29T07:07:54.764Z,90.36
2019-01-29T07:10:40.260Z,90.35
2019-01-29T07:13:13.431Z,90.25
2019-01-29T07:16:15.649Z,90.18
2019-01-29T07:19:06.938Z,90.11
2019-01-29T07:21:42.459Z,90.06
2019-01-29T07:24:16.099Z,89.94
2019-01-29T07:27:02.072Z,89.82
2019-01-29T07:29:36.067Z,89.74
2019-01-29T07:32:10.130Z,89.63
2019-01-29T07:34:44.689Z,89.54
2019-01-29T07:37:21.924Z,89.55
2019-01-29T07:40:19.004Z,89.54
2019-01-29T07:43:05.146Z,89.55
2019-01-29T07:45:50.442Z,89.55
2019-01-29T07:48:23.784Z,89.54
2019-01-29T07:50:57.901Z,89.54
2019-01-29T07:53:44.073Z,89.60
2019-01-29T07:56:29.390Z,89.60
2019-01-29T07:59:03.535Z,89.61
2019-01-29T08:01:55.588Z,89.66
2019-01-29T08:04:47.328Z,89.62
2019-01-29T08:07:31.220Z,89.58
2019-01-29T08:10:16.838Z,89.49
2019-01-29T08:13:06.762Z,89.42
2019-01-29T08:15:40.466Z,89.42
2019-01-29T08:18:26.099Z,89.40
2019-01-29T08:21:10.968Z,89.32
2019-01-29T08:23:44.854Z,89.17
2019-01-29T08:26:18.959Z,89.17
2019-01-29T08:29:03.340Z,89.15
2019-01-29T08:31:55.678Z,89.10
2019-01-29T08:34:46.711Z,89.06
2019-01-29T08:37:20.171Z,89.05
2019-01-29T08:39:53.977Z,88.99
2019-01-29T08:42:27.749Z,88.89
2019-01-29T08:45:01.742Z,88.84
2019-01-29T08:47:46.898Z,88.74
2019-01-29T08:50:31.502Z,88.70
2019-01-29T08:53:05.206Z,88.64
2019-01-29T08:55:38.916Z,88.54
2019-01-29T08:58:12.676Z,88.41
2019-01-29T09:01:01.508Z,88.36
2019-01-29T09:03:35.842Z,88.21
2019-01-29T09:06:09.437Z,88.05
2019-01-29T09:08:42.620Z,87.90
2019-01-29T09:11:16.736Z,87.77
2019-01-29T09:13:50.471Z,87.73
2019-01-29T09:16:24.037Z,87.68
2019-01-29T09:18:57.946Z,87.65
2019-01-29T09:21:44.454Z,87.66
2019-01-29T09:24:17.920Z,87.65
2019-01-29T09:26:52.081Z,87.68
2019-01-29T09:29:25.852Z,87.62
2019-01-29T09:32:00.253Z,87.69
2019-01-29T09:34:33.655Z,87.66
2019-01-29T09:37:27.797Z,87.62
2019-01-29T09:40:14.784Z,87.59
2019-01-29T09:42:48.816Z,87.55
2019-01-29T09:45:20.846Z,87.60
2019-01-29T09:47:54.498Z,87.67
2019-01-29T09:50:28.382Z,87.72
2019-01-29T09:53:01.478Z,87.71
2019-01-29T09:55:35.262Z,87.73
2019-01-29T09:58:09.076Z,87.75
2019-01-29T10:00:41.471Z,87.79
2019-01-29T10:03:26.463Z,87.93
2019-01-29T10:06:00.269Z,87.89
2019-01-29T10:08:35.561Z,87.88
2019-01-29T10:11:09.313Z,87.76
2019-01-29T10:13:42.718Z,87.55
2019-01-29T10:16:15.823Z,87.36
2019-01-29T10:18:49.512Z,87.21
2019-01-29T10:21:22.325Z,86.76
2019-01-29T10:24:08.518Z,86.38
2019-01-29T10:27:00.282Z,86.25
2019-01-29T10:29:52.449Z,85.87
2019-01-29T10:32:43.649Z,85.32
2019-01-29T10:35:18.607Z,85.38
2019-01-29T10:37:52.341Z,85.37
2019-01-29T10:40:26.165Z,85.37
2019-01-29T10:43:18.011Z,85.43
2019-01-29T10:46:04.551Z,85.52
2019-01-29T10:48:37.931Z,85.53
2019-01-29T10:51:29.141Z,85.66
2019-01-29T10:54:02.820Z,85.42
2019-01-29T10:56:36.858Z,85.56
2019-01-29T10:59:28.196Z,85.63
2019-01-29T11:02:01.840Z,85.70
2019-01-29T11:04:35.834Z,85.69
2019-01-29T11:07:09.407Z,85.66
2019-01-29T11:09:42.907Z,85.68
2019-01-29T11:12:16.056Z,85.61
2019-01-29T11:14:49.923Z,85.69
2019-01-29T11:17:23.060Z,85.81
2019-01-29T11:20:10.156Z,85.88
2019-01-29T11:22:43.761Z,85.96
2019-01-29T11:25:28.999Z,85.85
2019-01-29T11:28:02.461Z,85.82
2019-01-29T11:30:36.176Z,85.78
2019-01-29T11:33:09.754Z,85.81
2019-01-29T11:35:43.891Z,85.75
2019-01-29T11:38:29.465Z,85.74
2019-01-29T11:41:02.708Z,85.72
2019-01-29T11:43:36.386Z,85.89
2019-01-29T11:46:11.549Z,85.83
2019-01-29T11:48:45.397Z,85.89
2019-01-29T11:51:19.027Z,85.99
2019-01-29T11:53:52.232Z,86.02
2019-01-29T11:56:25.672Z,85.96
2019-01-29T11:58:59.686Z,86.01
2019-01-29T12:01:34.498Z,85.89
2019-01-29T12:04:07.746Z,85.67
2019-01-29T12:06:41.812Z,85.51
2019-01-29T12:09:14.185Z,85.29
2019-01-29T12:11:47.758Z,85.04
2019-01-29T12:14:21.061Z,84.72
2019-01-29T12:16:55.103Z,84.66
2019-01-29T12:19:46.722Z,84.47
2019-01-29T12:22:32.136Z,84.76
2019-01-29T12:25:27.770Z,84.80
2019-01-29T12:28:01.915Z,84.84
2019-01-29T12:30:35.902Z,84.58
2019-01-29T12:33:11.015Z,84.43
2019-01-29T12:35:45.213Z,84.59
2019-01-29T12:38:31.069Z,84.31
2019-01-29T12:41:16.271Z,83.71
2019-01-29T12:44:01.290Z,83.41
2019-01-29T12:46:52.360Z,83.17
2019-01-29T12:49:37.361Z,82.87
2019-01-29T12:52:30.038Z,82.68
2019-01-29T12:55:03.456Z,82.92
2019-01-29T12:57:38.603Z,83.15
2019-01-29T13:00:14.066Z,83.08
2019-01-29T13:02:47.784Z,83.04
2019-01-29T13:05:22.425Z,83.09
2019-01-29T13:07:56.028Z,82.66
2019-01-29T13:10:29.901Z,82.32
2019-01-29T13:13:06.205Z,82.62
2019-01-29T13:15:39.701Z,82.27
2019-01-29T13:18:15.399Z,82.17
2019-01-29T13:20:49.420Z,82.17
2019-01-29T13:23:22.225Z,81.86
2019-01-29T13:25:56.333Z,81.62
2019-01-29T13:28:29.494Z,81.52
2019-01-29T13:31:03.287Z,81.55
2019-01-29T13:33:36.730Z,81.73
2019-01-29T13:36:10.531Z,81.64
2019-01-29T13:38:44.409Z,81.63
2019-01-29T13:41:18.279Z,81.61
2019-01-29T13:43:52.131Z,81.63
2019-01-29T13:46:43.897Z,81.61
2019-01-29T13:49:17.430Z,81.60
2019-01-29T13:52:08.537Z,81.54
2019-01-29T13:54:41.948Z,81.35
2019-01-29T13:57:15.445Z,81.53
2019-01-29T13:59:49.218Z,81.49
2019-01-29T14:02:23.124Z,81.59
2019-01-29T14:04:56.251Z,81.69
2019-01-29T14:07:30.041Z,81.33
2019-01-29T14:10:02.168Z,81.23
2019-01-29T14:12:35.636Z,80.67
2019-01-29T14:15:11.701Z,80.10
2019-01-29T14:18:04.633Z,80.12
2019-01-29T14:20:38.844Z,80.27
2019-01-29T14:23:12.899Z,80.36
2019-01-29T14:25:46.987Z,79.94
2019-01-29T14:39:29.794Z,79.57
2019-01-29T14:42:03.515Z,79.35
2019-01-29T14:44:39.427Z,79.30
2019-01-29T14:47:12.889Z,79.17
2019-01-29T14:49:58.298Z,79.47
2019-01-29T14:52:48.889Z,79.61
2019-01-29T14:55:22.197Z,79.91
2019-01-29T14:57:55.633Z,80.16
2019-01-29T15:00:29.129Z,80.37
2019-01-29T15:03:02.344Z,80.69
2019-01-29T15:05:53.321Z,80.60
2019-01-29T15:08:44.799Z,80.58
2019-01-29T15:11:36.376Z,80.60
2019-01-29T15:14:27.013Z,80.57
2019-01-29T15:17:19.799Z,80.41
2019-01-29T15:19:52.910Z,80.51
2019-01-29T15:22:26.342Z,80.40
2019-01-29T15:25:00.601Z,80.49
2019-01-29T15:27:35.594Z,80.40
2019-01-29T15:30:14.900Z,80.42
2019-01-29T15:32:48.773Z,80.41
2019-01-29T15:35:22.825Z,80.63
2019-01-29T15:37:56.065Z,80.85
2019-01-29T15:40:29.823Z,80.97
2019-01-29T15:43:03.626Z,81.17
2019-01-29T15:45:37.144Z,81.27
2019-01-29T15:48:10.925Z,81.45
2019-01-29T16:01:25.544Z,82.07
2019-01-29T16:03:59.242Z,82.27
2019-01-29T16:06:33.598Z,82.46
2019-01-29T16:09:09.599Z,82.61
2019-01-29T16:11:42.938Z,82.74
2019-01-29T16:14:16.375Z,82.67
2019-01-29T16:16:50.794Z,82.52
2019-01-29T16:19:36.380Z,82.36
2019-01-29T16:22:09.760Z,82.36
2019-01-29T16:24:43.585Z,82.29
2019-01-29T16:27:22.877Z,82.63
2019-01-29T16:29:53.571Z,82.90
2019-01-29T16:32:27.167Z,83.12
2019-01-29T16:35:00.918Z,83.39
2019-01-29T16:37:34.509Z,83.67
2019-01-29T16:40:10.534Z,83.81
2019-01-29T16:43:24.042Z,83.82
2019-01-29T16:45:57.417Z,83.97
2019-01-29T16:48:31.515Z,84.28
2019-01-29T16:51:05.433Z,84.37
2019-01-29T16:53:56.098Z,84.48
2019-01-29T16:56:29.834Z,84.45
2019-01-29T16:59:04.270Z,84.46
2019-01-29T17:01:38.046Z,84.46
2019-01-29T17:04:12.368Z,84.64
2019-01-29T17:06:46.227Z,84.78
2019-01-29T17:09:38.874Z,84.88
2019-01-29T17:12:11.970Z,84.77
2019-01-29T17:14:57.214Z,85.00
2019-01-29T17:17:42.793Z,85.27
2019-01-29T17:20:35.800Z,85.45
2019-01-29T17:23:21.302Z,85.59
2019-01-29T17:26:15.898Z,85.63
2019-01-29T17:28:49.624Z,85.66
2019-01-29T17:31:22.972Z,85.64
2019-01-29T17:33:56.897Z,85.57
2019-01-29T17:36:45.558Z,85.60
2019-01-29T17:49:59.765Z,85.66
2019-01-29T17:52:33.287Z,85.64
2019-01-29T17:55:24.679Z,85.73
2019-01-29T17:57:59.042Z,85.85
2019-01-29T18:00:50.478Z,85.98
2019-01-29T18:03:23.120Z,86.12
2019-01-29T18:05:57.449Z,86.21
2019-01-29T18:08:49.850Z,86.33
2019-01-29T18:11:39.298Z,86.39
2019-01-29T18:14:24.517Z,86.44
2019-01-29T18:16:58.478Z,86.46
2019-01-29T18:19:44.632Z,86.44
2019-01-29T18:22:38.696Z,86.40
2019-01-29T18:25:29.685Z,86.41
2019-01-29T18:28:03.062Z,86.38
2019-01-29T18:30:36.722Z,86.32
2019-01-29T18:33:10.500Z,86.23
2019-01-29T18:35:44.444Z,86.31
2019-01-29T18:38:17.111Z,86.29
2019-01-29T18:40:53.706Z,86.27
2019-01-29T18:43:27.807Z,86.34
2019-01-29T18:46:01.624Z,86.34
2019-01-29T18:48:35.727Z,86.39
2019-01-29T18:51:21.564Z,86.58
2019-01-29T18:54:12.936Z,86.71
2019-01-29T18:56:58.830Z,86.84
2019-01-29T18:59:50.453Z,87.00
2019-01-29T19:02:23.244Z,87.08
2019-01-29T19:04:56.662Z,87.19
2019-01-29T19:07:44.826Z,87.34
2019-01-29T19:10:20.003Z,87.47
2019-01-29T19:12:53.196Z,87.49
2019-01-29T19:15:27.055Z,87.50
2019-01-29T19:18:21.138Z,87.53
2019-01-29T19:20:54.851Z,87.47
2019-01-29T19:23:28.485Z,87.40
2019-01-29T19:26:02.639Z,87.35
2019-01-29T19:28:53.117Z,87.37
2019-01-29T19:31:37.786Z,87.40
2019-01-29T19:34:28.090Z,87.40
2019-01-29T19:37:03.111Z,87.35
2019-01-29T19:39:37.297Z,87.29
2019-01-29T19:42:27.609Z,87.25
2019-01-29T19:45:22.527Z,87.21
2019-01-29T19:48:13.408Z,87.22
2019-01-29T19:50:59.629Z,87.31
2019-01-29T19:53:37.753Z,87.41
2019-01-29T19:56:10.636Z,87.46
2019-01-29T19:58:45.245Z,87.44
2019-01-29T20:01:36.501Z,87.41
2019-01-29T20:04:08.591Z,87.43
2019-01-29T20:06:53.110Z,87.46
2019-01-29T20:09:44.755Z,87.45
2019-01-29T20:12:18.472Z,87.50
2019-01-29T20:14:51.613Z,87.52
2019-01-29T20:17:39.243Z,87.55
2019-01-29T20:20:16.217Z,87.54
2019-01-29T20:23:08.514Z,87.52
2019-01-29T20:25:46.856Z,87.53
2019-01-29T20:28:22.025Z,87.55
2019-01-29T20:31:01.512Z,87.55
2019-01-29T20:33:40.840Z,87.53
2019-01-29T20:36:25.520Z,87.46
2019-01-29T20:38:58.922Z,87.46
2019-01-29T20:41:33.007Z,87.39
2019-01-29T20:44:24.813Z,87.30
2019-01-29T20:47:10.550Z,87.32
2019-01-29T20:49:44.530Z,87.28
2019-01-29T20:52:17.989Z,87.36
2019-01-29T20:54:52.195Z,87.38
2019-01-29T20:57:25.853Z,87.27
2019-01-29T20:59:59.342Z,87.17
2019-01-29T21:02:32.826Z,87.09
2019-01-29T21:05:06.920Z,87.16
2019-01-29T21:07:40.324Z,87.16
2019-01-29T21:10:16.017Z,87.25
2019-01-29T21:13:07.121Z,87.32
2019-01-29T21:15:52.825Z,87.28
2019-01-29T21:18:43.939Z,87.29
2019-01-29T21:21:36.211Z,87.34
2019-01-29T21:24:21.513Z,87.48
2019-01-29T21:27:12.589Z,87.50
2019-01-29T21:29:58.054Z,87.53
2019-01-29T21:32:32.110Z,87.51
2019-01-29T21:35:23.835Z,87.48
2019-01-29T21:38:09.540Z,87.49
2019-01-29T21:40:47.086Z,87.47
2019-01-29T21:43:21.511Z,87.51
2019-01-29T21:45:55.647Z,87.49
2019-01-29T21:48:30.201Z,87.41
2019-01-29T21:51:15.634Z,87.41
2019-01-29T21:53:49.781Z,87.47
2019-01-29T21:56:23.852Z,87.41
2019-01-29T21:59:15.329Z,87.31
2019-01-29T22:02:07.562Z,87.27
2019-01-29T22:05:00.015Z,87.31
2019-01-29T22:07:33.782Z,87.28
2019-01-29T22:10:27.752Z,87.36
2019-01-29T22:13:14.338Z,87.35
2019-01-29T22:15:51.878Z,87.25
2019-01-29T22:18:41.742Z,87.23
2019-01-29T22:21:35.234Z,87.18
2019-01-29T22:24:21.017Z,87.23
2019-01-29T22:27:08.021Z,87.27
2019-01-29T22:29:42.875Z,87.27
2019-01-29T22:32:38.783Z,87.23
2019-01-29T22:35:28.582Z,87.29
2019-01-29T22:38:20.426Z,87.33
2019-01-29T22:40:54.124Z,87.37
2019-01-29T22:43:29.498Z,87.38
2019-01-29T22:46:06.638Z,87.39
2019-01-29T22:49:04.047Z,87.30
2019-01-29T22:51:43.369Z,87.22
2019-01-29T22:54:17.268Z,87.05
2019-01-29T22:56:55.265Z,87.04
2019-01-29T22:59:33.472Z,87.01
2019-01-29T23:02:05.711Z,86.94
2019-01-29T23:04:43.936Z,86.97
2019-01-29T23:07:37.935Z,87.04
2019-01-29T23:10:15.459Z,87.03
2019-01-29T23:34:49.383Z,87.25
2019-01-29T23:40:48.789Z,87.36
2019-01-29T23:43:27.328Z,87.40
2019-01-29T23:46:01.395Z,87.45
2019-01-29T23:48:46.666Z,87.45
2019-01-29T23:51:20.060Z,87.33
2019-01-29T23:53:59.263Z,87.23
2019-01-29T23:56:33.051Z,87.18
2019-01-29T23:59:12.168Z,87.13
